createdAt,value
2023-07-05T00:00:50.076Z,17.58
2023-07-05T00:02:54.282Z,17.67
2023-07-05T00:04:59.248Z,17.56
2023-07-05T00:07:02.793Z,17.48
2023-07-05T00:09:06.294Z,17.45
2023-07-05T00:11:11.644Z,17.46
2023-07-05T00:13:15.286Z,17.38
2023-07-05T00:15:19.031Z,17.38
2023-07-05T00:17:21.873Z,17.31
2023-07-05T00:19:25.418Z,17.31
2023-07-05T00:21:30.554Z,17.34
2023-07-05T00:23:37.861Z,17.36
2023-07-05T00:25:41.466Z,17.39
2023-07-05T00:27:44.974Z,17.42
2023-07-05T00:29:48.588Z,17.54
2023-07-05T00:31:52.167Z,17.48
2023-07-05T00:33:55.772Z,17.53
2023-07-05T00:36:00.132Z,17.54
2023-07-05T00:38:06.185Z,17.60
2023-07-05T00:40:11.000Z,17.61
2023-07-05T00:42:14.537Z,17.64
2023-07-05T00:44:18.234Z,17.69
2023-07-05T00:46:25.458Z,17.62
2023-07-05T00:48:36.211Z,17.65
2023-07-05T00:50:42.482Z,17.63
2023-07-05T00:52:46.282Z,17.63
2023-07-05T00:54:56.983Z,17.60
2023-07-05T00:57:06.439Z,17.59
2023-07-05T00:59:14.578Z,17.58
2023-07-05T01:01:19.446Z,17.52
2023-07-05T01:03:27.635Z,17.36
2023-07-05T01:05:32.069Z,17.34
2023-07-05T01:07:36.118Z,17.30
2023-07-05T01:09:39.657Z,17.28
2023-07-05T01:11:54.121Z,17.32
2023-07-05T01:14:02.790Z,17.38
2023-07-05T01:16:22.977Z,17.44
2023-07-05T01:18:33.857Z,17.45
2023-07-05T01:20:45.558Z,17.46
2023-07-05T01:23:09.460Z,17.46
2023-07-05T01:25:46.110Z,17.53
2023-07-05T01:28:14.092Z,17.55
2023-07-05T01:30:52.160Z,17.54
2023-07-05T01:33:03.110Z,17.59
2023-07-05T01:35:15.032Z,17.67
2023-07-05T01:37:29.721Z,17.65
2023-07-05T01:39:33.316Z,17.68
2023-07-05T01:41:38.072Z,17.67
2023-07-05T01:43:43.894Z,17.73
2023-07-05T01:46:00.320Z,17.71
2023-07-05T01:48:16.767Z,17.69
2023-07-05T01:50:27.250Z,17.70
2023-07-05T01:52:37.498Z,17.71
2023-07-05T01:54:55.849Z,17.69
2023-07-05T01:57:05.391Z,17.70
2023-07-05T01:59:13.499Z,17.71
2023-07-05T02:01:19.886Z,17.74
2023-07-05T02:03:27.319Z,17.74
2023-07-05T02:05:32.269Z,17.75
2023-07-05T02:07:40.632Z,17.77
2023-07-05T02:09:45.135Z,17.72
2023-07-05T02:11:48.727Z,17.77
2023-07-05T02:13:52.319Z,17.78
2023-07-05T02:15:56.069Z,17.76
2023-07-05T02:17:59.868Z,17.76
2023-07-05T02:20:05.421Z,17.75
2023-07-05T02:22:09.453Z,17.77
2023-07-05T02:24:12.914Z,17.75
2023-07-05T02:26:16.833Z,17.83
2023-07-05T02:28:20.469Z,17.70
2023-07-05T02:30:25.425Z,17.64
2023-07-05T02:32:29.229Z,17.64
2023-07-05T02:34:33.534Z,17.61
2023-07-05T02:36:39.209Z,17.55
2023-07-05T02:38:43.224Z,17.50
2023-07-05T02:40:49.229Z,17.53
2023-07-05T02:42:52.706Z,17.48
2023-07-05T02:44:57.285Z,17.41
2023-07-05T02:47:00.694Z,17.43
2023-07-05T02:49:04.313Z,17.39
2023-07-05T02:51:07.845Z,17.47
2023-07-05T02:53:13.283Z,17.43
2023-07-05T02:55:17.026Z,17.40
2023-07-05T02:57:20.726Z,17.40
2023-07-05T02:59:24.584Z,17.55
2023-07-05T03:01:28.096Z,17.56
2023-07-05T03:03:31.613Z,17.59
2023-07-05T03:05:35.159Z,17.59
2023-07-05T03:07:38.680Z,17.56
2023-07-05T03:09:49.553Z,17.48
2023-07-05T03:11:53.262Z,17.43
2023-07-05T03:13:56.880Z,17.40
2023-07-05T03:16:02.220Z,17.45
2023-07-05T03:18:06.644Z,17.43
2023-07-05T03:20:10.685Z,17.36
2023-07-05T03:22:14.278Z,17.25
2023-07-05T03:24:17.881Z,17.25
2023-07-05T03:26:22.811Z,17.20
2023-07-05T03:28:28.299Z,17.22
2023-07-05T03:30:31.943Z,17.15
2023-07-05T03:32:35.673Z,17.12
2023-07-05T03:34:39.275Z,17.05
2023-07-05T03:36:42.867Z,16.49
2023-07-05T03:38:46.877Z,16.96
2023-07-05T03:40:58.273Z,16.83
2023-07-05T03:43:03.098Z,16.77
2023-07-05T03:45:07.242Z,16.73
2023-07-05T03:47:11.389Z,16.66
2023-07-05T03:49:15.041Z,16.66
2023-07-05T03:51:21.026Z,16.47
2023-07-05T03:53:25.927Z,16.40
2023-07-05T03:55:29.772Z,16.24
2023-07-05T03:57:33.279Z,16.12
2023-07-05T03:59:38.226Z,16.09
2023-07-05T04:01:41.814Z,16.13
2023-07-05T04:03:46.881Z,16.07
2023-07-05T04:05:50.404Z,16.19
2023-07-05T04:07:54.009Z,16.01
2023-07-05T04:09:57.499Z,16.04
2023-07-05T04:12:00.998Z,15.95
2023-07-05T04:14:04.881Z,15.81
2023-07-05T04:16:15.278Z,15.77
2023-07-05T04:18:21.927Z,15.71
2023-07-05T04:20:32.014Z,15.60
2023-07-05T04:22:37.823Z,15.62
2023-07-05T04:24:41.322Z,15.57
2023-07-05T04:26:44.905Z,15.53
2023-07-05T04:28:49.479Z,15.36
2023-07-05T04:30:53.275Z,15.40
2023-07-05T04:32:58.825Z,15.35
2023-07-05T04:35:03.255Z,15.34
2023-07-05T04:37:07.173Z,15.35
2023-07-05T04:39:10.674Z,15.22
2023-07-05T04:41:14.376Z,15.35
2023-07-05T04:43:17.827Z,15.31
2023-07-05T04:45:21.345Z,15.27
2023-07-05T04:47:25.089Z,15.32
2023-07-05T04:49:29.970Z,15.29
2023-07-05T04:51:34.016Z,15.45
2023-07-05T04:53:38.279Z,15.50
2023-07-05T04:55:46.457Z,15.47
2023-07-05T04:57:50.781Z,15.51
2023-07-05T04:59:54.364Z,15.49
2023-07-05T05:01:58.133Z,15.65
2023-07-05T05:04:01.803Z,15.53
2023-07-05T05:06:06.855Z,15.52
2023-07-05T05:08:10.288Z,15.64
2023-07-05T05:10:14.817Z,15.62
2023-07-05T05:12:18.317Z,15.57
2023-07-05T05:14:21.820Z,15.51
2023-07-05T05:16:25.301Z,15.47
2023-07-05T05:18:32.797Z,15.48
2023-07-05T05:20:36.955Z,15.52
2023-07-05T05:22:41.913Z,15.58
2023-07-05T05:24:45.375Z,15.56
2023-07-05T05:26:49.351Z,15.61
2023-07-05T05:28:53.070Z,15.56
2023-07-05T05:31:04.103Z,15.52
2023-07-05T05:33:07.997Z,15.56
2023-07-05T05:35:11.465Z,15.57
2023-07-05T05:37:15.005Z,15.57
2023-07-05T05:39:19.848Z,15.63
2023-07-05T05:41:23.363Z,15.68
2023-07-05T05:43:27.035Z,15.62
2023-07-05T05:45:30.569Z,15.73
2023-07-05T05:47:34.217Z,15.62
2023-07-05T05:49:37.832Z,15.60
2023-07-05T05:51:41.394Z,15.68
2023-07-05T05:53:44.856Z,15.89
2023-07-05T05:55:50.134Z,15.81
2023-07-05T05:57:53.687Z,15.70
2023-07-05T05:59:57.317Z,15.84
2023-07-05T06:02:01.286Z,15.84
2023-07-05T06:04:04.951Z,16.07
2023-07-05T06:06:08.761Z,15.84
2023-07-05T06:08:12.309Z,15.91
2023-07-05T06:10:15.898Z,15.64
2023-07-05T06:12:21.383Z,15.81
2023-07-05T06:14:25.586Z,15.57
2023-07-05T06:16:29.259Z,15.63
2023-07-05T06:18:32.875Z,15.73
2023-07-05T06:20:36.415Z,15.54
2023-07-05T06:22:39.932Z,15.60
2023-07-05T06:24:43.794Z,15.66
2023-07-05T06:26:47.359Z,15.61
2023-07-05T06:28:52.214Z,15.01
2023-07-05T06:30:55.934Z,15.53
2023-07-05T06:32:59.632Z,15.68
2023-07-05T06:35:03.641Z,15.75
2023-07-05T06:37:07.334Z,15.76
2023-07-05T06:39:10.864Z,15.79
2023-07-05T06:41:14.370Z,15.73
2023-07-05T06:43:17.804Z,15.84
2023-07-05T06:45:22.932Z,15.66
2023-07-05T06:47:27.398Z,15.73
2023-07-05T06:49:30.948Z,15.76
2023-07-05T06:51:34.421Z,15.64
2023-07-05T06:53:48.775Z,15.64
2023-07-05T06:55:53.385Z,15.66
2023-07-05T06:57:56.806Z,15.65
2023-07-05T07:00:00.389Z,15.72
2023-07-05T07:02:05.821Z,15.68
2023-07-05T07:04:09.376Z,15.78
2023-07-05T07:06:13.010Z,15.90
2023-07-05T07:08:16.490Z,15.87
2023-07-05T07:10:19.974Z,15.80
2023-07-05T07:12:23.469Z,15.92
2023-07-05T07:14:27.668Z,15.76
2023-07-05T07:16:31.110Z,15.75
2023-07-05T07:18:37.394Z,15.58
2023-07-05T07:20:41.418Z,15.56
2023-07-05T07:22:45.518Z,15.74
2023-07-05T07:24:51.742Z,15.63
2023-07-05T07:26:56.422Z,15.72
2023-07-05T07:28:59.832Z,15.62
2023-07-05T07:31:11.492Z,15.69
2023-07-05T07:33:15.029Z,15.83
2023-07-05T07:35:19.931Z,15.78
2023-07-05T07:37:23.436Z,15.81
2023-07-05T07:39:26.914Z,15.72
2023-07-05T07:41:35.280Z,15.87
2023-07-05T07:43:39.366Z,15.80
2023-07-05T07:45:42.815Z,15.73
2023-07-05T07:47:46.550Z,15.78
2023-07-05T07:49:50.686Z,15.74
2023-07-05T07:51:55.501Z,15.72
2023-07-05T07:53:59.470Z,15.74
2023-07-05T07:56:10.702Z,15.66
2023-07-05T07:58:14.223Z,15.69
2023-07-05T08:00:18.768Z,15.79
2023-07-05T08:02:23.304Z,15.66
2023-07-05T08:04:28.534Z,15.71
2023-07-05T08:06:34.471Z,15.66
2023-07-05T08:08:41.204Z,15.75
2023-07-05T08:10:44.717Z,15.81
2023-07-05T08:12:48.284Z,15.90
2023-07-05T08:14:51.948Z,15.92
2023-07-05T08:16:55.447Z,16.01
2023-07-05T08:18:59.385Z,16.18
2023-07-05T08:21:03.856Z,16.33
2023-07-05T08:23:07.467Z,16.42
2023-07-05T08:25:14.253Z,16.40
2023-07-05T08:27:17.771Z,16.59
2023-07-05T08:29:21.353Z,16.59
2023-07-05T08:31:24.834Z,16.72
2023-07-05T08:33:30.272Z,16.91
2023-07-05T08:35:34.102Z,16.80
2023-07-05T08:37:37.785Z,16.76
2023-07-05T08:39:41.345Z,16.79
2023-07-05T08:42:01.683Z,16.75
2023-07-05T08:44:16.585Z,16.67
2023-07-05T08:46:22.349Z,16.94
2023-07-05T08:48:25.920Z,16.88
2023-07-05T08:50:34.444Z,16.76
2023-07-05T08:52:44.701Z,16.91
2023-07-05T08:54:50.076Z,17.01
2023-07-05T08:57:04.229Z,16.99
2023-07-05T08:59:17.148Z,17.04
2023-07-05T09:01:26.698Z,17.32
2023-07-05T09:03:31.401Z,17.42
2023-07-05T09:05:41.131Z,17.45
2023-07-05T09:07:56.256Z,17.44
2023-07-05T09:10:08.770Z,17.28
2023-07-05T09:12:21.616Z,17.40
2023-07-05T09:14:36.448Z,17.46
2023-07-05T09:16:45.433Z,17.53
2023-07-05T09:18:58.320Z,17.75
2023-07-05T09:21:14.935Z,17.58
2023-07-05T09:23:23.606Z,17.54
2023-07-05T09:25:44.300Z,17.61
2023-07-05T09:28:03.453Z,17.69
2023-07-05T09:30:12.504Z,17.56
2023-07-05T09:32:20.688Z,17.62
2023-07-05T09:34:29.824Z,17.42
2023-07-05T09:36:34.166Z,17.43
2023-07-05T09:38:42.340Z,17.64
2023-07-05T09:40:49.016Z,17.59
2023-07-05T09:42:58.248Z,17.59
2023-07-05T09:45:01.956Z,17.68
2023-07-05T09:47:05.998Z,17.73
2023-07-05T09:49:14.053Z,17.81
2023-07-05T09:51:17.547Z,17.92
2023-07-05T09:53:36.149Z,18.02
2023-07-05T09:56:04.150Z,18.32
2023-07-05T09:58:17.890Z,18.40
2023-07-05T10:00:24.247Z,18.33
2023-07-05T10:02:32.794Z,17.83
2023-07-05T10:04:45.446Z,17.77
2023-07-05T10:06:51.653Z,18.28
2023-07-05T10:08:56.927Z,18.26
2023-07-05T10:11:05.011Z,18.17
2023-07-05T10:13:17.130Z,18.26
2023-07-05T10:15:23.451Z,18.27
2023-07-05T10:17:41.616Z,18.19
2023-07-05T10:19:51.249Z,18.08
2023-07-05T10:21:59.348Z,18.40
2023-07-05T10:24:05.412Z,18.19
2023-07-05T10:26:09.270Z,18.31
2023-07-05T10:28:20.185Z,18.41
2023-07-05T10:30:23.746Z,18.33
2023-07-05T10:32:27.203Z,18.46
2023-07-05T10:34:30.665Z,18.51
2023-07-05T10:36:34.159Z,18.25
2023-07-05T10:38:51.471Z,18.61
2023-07-05T10:41:00.421Z,19.03
2023-07-05T10:43:04.440Z,19.10
2023-07-05T10:45:15.618Z,19.17
2023-07-05T10:47:21.291Z,19.47
2023-07-05T10:49:27.243Z,19.32
2023-07-05T10:51:35.738Z,19.13
2023-07-05T10:53:39.393Z,19.12
2023-07-05T10:55:47.385Z,19.13
2023-07-05T10:57:55.141Z,18.59
2023-07-05T11:00:12.087Z,19.41
2023-07-05T11:02:38.589Z,19.19
2023-07-05T11:04:45.650Z,19.63
2023-07-05T11:06:50.756Z,19.90
2023-07-05T11:08:54.390Z,19.90
2023-07-05T11:11:02.551Z,19.83
2023-07-05T11:13:07.240Z,19.74
2023-07-05T11:15:15.860Z,19.67
2023-07-05T11:17:27.465Z,19.91
2023-07-05T11:19:32.802Z,19.91
2023-07-05T11:21:38.402Z,19.72
2023-07-05T11:23:55.926Z,19.48
2023-07-05T11:26:01.859Z,19.38
2023-07-05T11:28:05.604Z,19.44
2023-07-05T11:30:44.237Z,19.21
2023-07-05T11:33:19.375Z,19.77
2023-07-05T11:35:48.080Z,20.08
2023-07-05T11:37:52.501Z,20.04
2023-07-05T11:39:55.979Z,20.59
2023-07-05T11:41:59.776Z,20.36
2023-07-05T11:44:05.589Z,20.59
2023-07-05T11:46:40.600Z,20.49
2023-07-05T11:48:46.642Z,20.84
2023-07-05T11:50:50.103Z,20.66
2023-07-05T11:53:01.011Z,20.30
2023-07-05T11:55:12.941Z,20.23
2023-07-05T11:57:16.998Z,20.35
2023-07-05T11:59:23.824Z,20.72
2023-07-05T12:01:32.177Z,21.15
2023-07-05T12:03:42.600Z,21.24
2023-07-05T12:05:55.990Z,21.44
2023-07-05T12:08:05.433Z,21.41
2023-07-05T12:10:12.944Z,21.45
2023-07-05T12:12:16.502Z,21.25
2023-07-05T12:14:19.924Z,21.02
2023-07-05T12:16:23.514Z,20.55
2023-07-05T12:18:28.443Z,20.67
2023-07-05T12:20:38.918Z,20.50
2023-07-05T12:22:43.838Z,21.02
2023-07-05T12:24:50.600Z,21.18
2023-07-05T12:26:57.859Z,21.12
2023-07-05T12:29:04.542Z,20.62
2023-07-05T12:31:11.769Z,20.21
2023-07-05T12:33:22.821Z,19.59
2023-07-05T12:35:27.854Z,19.97
2023-07-05T12:37:32.113Z,19.75
2023-07-05T12:39:39.890Z,19.30
2023-07-05T12:41:43.383Z,19.33
2023-07-05T12:43:47.984Z,19.28
2023-07-05T12:45:51.543Z,19.11
2023-07-05T12:47:55.420Z,19.09
2023-07-05T12:50:04.516Z,19.44
2023-07-05T12:52:22.620Z,19.62
2023-07-05T12:54:26.713Z,20.04
2023-07-05T12:56:36.667Z,20.12
2023-07-05T12:58:48.539Z,20.22
2023-07-05T13:00:54.055Z,20.27
2023-07-05T13:03:01.528Z,20.45
2023-07-05T13:05:06.412Z,20.50
2023-07-05T13:07:18.436Z,20.55
2023-07-05T13:09:30.063Z,20.59
2023-07-05T13:11:35.778Z,20.65
2023-07-05T13:13:39.526Z,20.67
2023-07-05T13:15:43.142Z,20.55
2023-07-05T13:17:47.832Z,20.79
2023-07-05T13:20:02.609Z,21.15
2023-07-05T13:22:24.086Z,21.32
2023-07-05T13:24:36.926Z,21.56
2023-07-05T13:26:41.989Z,21.87
2023-07-05T13:28:47.291Z,21.73
2023-07-05T13:30:55.827Z,21.34
2023-07-05T13:33:01.214Z,20.86
2023-07-05T13:35:12.937Z,20.73
2023-07-05T13:37:20.449Z,20.18
2023-07-05T13:39:24.133Z,20.34
2023-07-05T13:41:31.607Z,20.17
2023-07-05T13:43:36.576Z,20.10
2023-07-05T13:45:40.895Z,19.99
2023-07-05T13:47:44.769Z,19.80
2023-07-05T13:49:48.428Z,19.77
2023-07-05T13:51:56.295Z,20.04
2023-07-05T13:53:59.830Z,20.01
2023-07-05T13:56:03.266Z,20.05
2023-07-05T13:58:10.616Z,20.41
2023-07-05T14:00:30.651Z,20.72
2023-07-05T14:02:35.916Z,20.64
2023-07-05T14:04:39.645Z,20.83
2023-07-05T14:06:46.185Z,20.89
2023-07-05T14:08:49.810Z,21.21
2023-07-05T14:10:53.507Z,21.24
2023-07-05T14:12:57.591Z,21.09
2023-07-05T14:15:01.610Z,21.32
2023-07-05T14:17:07.382Z,21.30
2023-07-05T14:19:10.986Z,20.59
2023-07-05T14:21:29.730Z,19.70
2023-07-05T14:23:33.212Z,20.22
2023-07-05T14:25:43.250Z,20.23
2023-07-05T14:27:47.359Z,20.30
2023-07-05T14:29:54.535Z,20.06
2023-07-05T14:31:58.790Z,20.08
2023-07-05T14:34:06.435Z,19.94
2023-07-05T14:36:12.648Z,20.86
2023-07-05T14:38:16.176Z,21.17
2023-07-05T14:40:21.952Z,20.88
2023-07-05T14:42:25.498Z,20.86
2023-07-05T14:44:29.297Z,20.93
2023-07-05T14:46:33.121Z,20.68
2023-07-05T14:48:36.918Z,20.68
2023-07-05T14:50:46.916Z,20.97
2023-07-05T14:52:51.165Z,20.73
2023-07-05T14:54:54.735Z,20.66
2023-07-05T14:56:58.634Z,20.73
2023-07-05T14:59:02.236Z,20.55
2023-07-05T15:01:08.835Z,20.45
2023-07-05T15:03:27.512Z,20.06
2023-07-05T15:05:31.251Z,20.06
2023-07-05T15:07:36.198Z,20.04
2023-07-05T15:09:39.635Z,20.05
2023-07-05T15:11:43.404Z,19.94
2023-07-05T15:13:48.115Z,20.00
2023-07-05T15:15:52.656Z,19.82
2023-07-05T15:17:56.928Z,19.80
2023-07-05T15:20:00.648Z,20.24
2023-07-05T15:22:05.025Z,20.45
2023-07-05T15:24:10.195Z,21.09
2023-07-05T15:26:13.843Z,21.07
2023-07-05T15:28:17.706Z,20.72
2023-07-05T15:30:22.346Z,20.97
2023-07-05T15:32:25.948Z,21.27
2023-07-05T15:34:29.407Z,21.62
2023-07-05T15:36:32.886Z,21.38
2023-07-05T15:38:36.469Z,20.96
2023-07-05T15:40:41.872Z,20.52
2023-07-05T15:42:45.568Z,20.63
2023-07-05T15:44:49.958Z,20.30
2023-07-05T15:46:53.488Z,21.12
2023-07-05T15:48:57.139Z,21.21
2023-07-05T15:51:00.635Z,21.04
2023-07-05T15:53:04.120Z,20.62
2023-07-05T15:55:11.858Z,21.18
2023-07-05T15:57:18.777Z,21.25
2023-07-05T15:59:26.707Z,21.21
2023-07-05T16:01:33.091Z,21.50
2023-07-05T16:03:36.798Z,21.74
2023-07-05T16:05:41.603Z,21.25
2023-07-05T16:07:45.178Z,21.58
2023-07-05T16:09:48.652Z,21.80
2023-07-05T16:11:52.282Z,21.82
2023-07-05T16:13:57.252Z,21.83
2023-07-05T16:16:01.963Z,21.34
2023-07-05T16:18:07.748Z,21.02
2023-07-05T16:20:12.147Z,20.81
2023-07-05T16:22:15.635Z,20.75
2023-07-05T16:24:19.100Z,20.39
2023-07-05T16:26:22.578Z,20.21
2023-07-05T16:28:26.355Z,20.13
2023-07-05T16:30:31.392Z,19.82
2023-07-05T16:32:35.031Z,19.79
2023-07-05T16:34:38.805Z,19.76
2023-07-05T16:36:42.287Z,19.72
2023-07-05T16:38:46.408Z,19.75
2023-07-05T16:40:50.615Z,19.70
2023-07-05T16:42:54.281Z,19.68
2023-07-05T16:44:58.003Z,19.64
2023-07-05T16:47:02.861Z,19.44
2023-07-05T16:49:06.816Z,19.32
2023-07-05T16:51:11.927Z,19.24
2023-07-05T16:53:15.450Z,19.25
2023-07-05T16:55:19.057Z,19.18
2023-07-05T16:57:22.646Z,19.13
2023-07-05T16:59:26.151Z,19.01
2023-07-05T17:01:30.974Z,18.66
2023-07-05T17:03:38.002Z,18.18
2023-07-05T17:05:41.694Z,17.95
2023-07-05T17:07:45.193Z,17.83
2023-07-05T17:09:48.677Z,17.87
2023-07-05T17:11:52.181Z,17.63
2023-07-05T17:13:55.755Z,17.69
2023-07-05T17:16:01.753Z,17.70
2023-07-05T17:18:05.820Z,17.74
2023-07-05T17:20:12.371Z,17.67
2023-07-05T17:22:15.775Z,17.82
2023-07-05T17:24:23.513Z,17.92
2023-07-05T17:26:27.701Z,17.99
2023-07-05T17:28:31.770Z,17.83
2023-07-05T17:30:38.579Z,17.91
2023-07-05T17:32:42.156Z,18.01
2023-07-05T17:34:45.882Z,18.00
2023-07-05T17:36:50.957Z,18.03
2023-07-05T17:38:57.384Z,18.32
2023-07-05T17:41:00.958Z,18.43
2023-07-05T17:43:04.763Z,18.68
2023-07-05T17:45:09.099Z,18.97
2023-07-05T17:47:15.209Z,19.13
2023-07-05T17:49:18.760Z,18.41
2023-07-05T17:51:24.057Z,18.81
2023-07-05T17:53:29.127Z,19.35
2023-07-05T17:55:32.622Z,19.45
2023-07-05T17:57:36.280Z,19.50
2023-07-05T17:59:39.794Z,19.38
2023-07-05T18:01:43.406Z,19.31
2023-07-05T18:03:47.513Z,19.36
2023-07-05T18:05:55.051Z,19.31
2023-07-05T18:08:00.647Z,19.34
2023-07-05T18:10:06.609Z,19.30
2023-07-05T18:12:11.016Z,19.27
2023-07-05T18:14:14.521Z,19.31
2023-07-05T18:16:20.565Z,19.22
2023-07-05T18:18:24.264Z,19.36
2023-07-05T18:20:29.450Z,19.26
2023-07-05T18:22:33.703Z,19.28
2023-07-05T18:24:37.209Z,19.12
2023-07-05T18:26:43.037Z,18.44
2023-07-05T18:28:49.656Z,18.98
2023-07-05T18:30:57.209Z,18.64
2023-07-05T18:33:01.053Z,18.82
2023-07-05T18:35:05.202Z,19.09
2023-07-05T18:37:08.722Z,18.79
2023-07-05T18:39:12.611Z,18.78
2023-07-05T18:41:17.785Z,18.61
2023-07-05T18:43:23.910Z,18.04
2023-07-05T18:45:30.758Z,18.54
2023-07-05T18:47:34.713Z,18.69
2023-07-05T18:49:38.848Z,18.69
2023-07-05T18:51:42.274Z,18.72
2023-07-05T18:53:45.945Z,18.69
2023-07-05T18:55:54.851Z,18.69
2023-07-05T18:57:58.558Z,18.62
2023-07-05T19:00:06.616Z,18.80
2023-07-05T19:02:13.242Z,18.75
2023-07-05T19:04:16.907Z,18.41
2023-07-05T19:06:23.941Z,18.69
2023-07-05T19:08:29.038Z,18.62
2023-07-05T19:10:32.577Z,18.56
2023-07-05T19:12:36.506Z,18.59
2023-07-05T19:14:40.119Z,18.59
2023-07-05T19:16:45.127Z,18.54
2023-07-05T19:18:50.045Z,18.36
2023-07-05T19:20:53.503Z,18.58
2023-07-05T19:22:57.501Z,18.40
2023-07-05T19:25:01.750Z,18.49
2023-07-05T19:27:06.344Z,18.42
2023-07-05T19:29:10.551Z,18.51
2023-07-05T19:31:16.281Z,18.36
2023-07-05T19:33:21.307Z,18.49
2023-07-05T19:35:26.198Z,18.07
2023-07-05T19:37:29.797Z,18.95
2023-07-05T19:39:33.484Z,18.53
2023-07-05T19:41:37.482Z,18.35
2023-07-05T19:43:41.101Z,18.22
2023-07-05T19:45:44.857Z,18.90
2023-07-05T19:47:48.448Z,18.62
2023-07-05T19:49:53.491Z,18.94
2023-07-05T19:51:57.029Z,18.31
2023-07-05T19:54:00.573Z,18.18
2023-07-05T19:56:05.375Z,18.07
2023-07-05T19:58:08.858Z,17.89
2023-07-05T20:00:13.843Z,17.97
2023-07-05T20:02:17.504Z,17.90
2023-07-05T20:04:21.018Z,17.74
2023-07-05T20:06:25.949Z,17.83
2023-07-05T20:08:29.493Z,16.98
2023-07-05T20:10:33.556Z,15.91
2023-07-05T20:12:37.094Z,15.83
2023-07-05T20:14:41.480Z,15.71
2023-07-05T20:16:45.033Z,15.69
2023-07-05T20:18:49.177Z,15.57
2023-07-05T20:20:56.713Z,15.35
2023-07-05T20:23:09.333Z,16.19
2023-07-05T20:25:12.940Z,15.53
2023-07-05T20:27:16.358Z,16.36
2023-07-05T20:29:19.799Z,16.24
2023-07-05T20:31:23.410Z,15.43
2023-07-05T20:33:27.368Z,16.17
2023-07-05T20:35:30.986Z,16.43
2023-07-05T20:37:39.273Z,17.25
2023-07-05T20:39:51.616Z,16.75
2023-07-05T20:41:55.113Z,16.87
2023-07-05T20:43:58.603Z,17.00
2023-07-05T20:46:03.789Z,15.95
2023-07-05T20:48:07.393Z,15.59
2023-07-05T20:50:11.584Z,15.73
2023-07-05T20:52:15.176Z,15.59
2023-07-05T20:54:19.098Z,15.33
2023-07-05T20:56:24.041Z,15.24
2023-07-05T20:58:29.697Z,15.17
2023-07-05T21:00:35.118Z,14.94
2023-07-05T21:02:38.869Z,14.91
2023-07-05T21:04:43.262Z,14.80
2023-07-05T21:06:47.106Z,14.63
2023-07-05T21:08:51.043Z,14.86
2023-07-05T21:10:55.381Z,14.84
2023-07-05T21:13:00.246Z,15.33
2023-07-05T21:15:04.000Z,15.95
2023-07-05T21:17:08.376Z,15.36
2023-07-05T21:19:11.817Z,14.96
2023-07-05T21:21:16.970Z,15.20
2023-07-05T21:23:20.488Z,14.79
2023-07-05T21:25:24.096Z,14.96
2023-07-05T21:27:27.852Z,15.34
2023-07-05T21:29:33.274Z,15.29
2023-07-05T21:31:36.743Z,15.14
2023-07-05T21:33:40.649Z,14.88
2023-07-05T21:35:43.267Z,14.76
2023-07-05T21:37:47.098Z,14.65
2023-07-05T21:39:50.578Z,14.54
2023-07-05T21:41:54.077Z,14.45
2023-07-05T21:43:57.544Z,14.59
2023-07-05T21:46:02.631Z,14.73
2023-07-05T21:48:05.824Z,14.68
2023-07-05T21:50:10.355Z,14.63
2023-07-05T21:52:13.780Z,14.61
2023-07-05T21:54:17.432Z,14.58
2023-07-05T21:56:21.857Z,14.52
2023-07-05T21:58:29.652Z,14.69
2023-07-05T22:00:33.210Z,14.59
2023-07-05T22:02:38.481Z,14.09
2023-07-05T22:04:43.484Z,14.74
2023-07-05T22:06:49.181Z,14.69
2023-07-05T22:08:53.233Z,14.78
2023-07-05T22:10:56.969Z,14.68
2023-07-05T22:13:00.907Z,14.78
2023-07-05T22:15:04.783Z,14.93
2023-07-05T22:17:08.779Z,14.75
2023-07-05T22:19:14.540Z,15.04
2023-07-05T22:21:18.726Z,14.79
2023-07-05T22:23:23.255Z,14.78
2023-07-05T22:25:27.983Z,14.71
2023-07-05T22:27:31.759Z,14.60
2023-07-05T22:29:35.201Z,14.60
2023-07-05T22:31:40.265Z,14.55
2023-07-05T22:33:43.684Z,14.77
2023-07-05T22:35:50.541Z,14.63
2023-07-05T22:37:54.080Z,14.68
2023-07-05T22:39:57.538Z,14.61
2023-07-05T22:42:00.942Z,14.55
2023-07-05T22:44:06.739Z,14.60
2023-07-05T22:46:10.311Z,14.46
2023-07-05T22:48:14.249Z,14.61
2023-07-05T22:50:18.774Z,14.54
2023-07-05T22:52:25.290Z,14.58
2023-07-05T22:54:28.784Z,14.53
2023-07-05T22:56:31.206Z,14.60
2023-07-05T22:58:34.775Z,14.53
2023-07-05T23:00:38.221Z,14.53
2023-07-05T23:02:41.901Z,14.52
2023-07-05T23:04:46.194Z,14.71
2023-07-05T23:06:49.788Z,14.59
2023-07-05T23:08:54.617Z,14.52
2023-07-05T23:11:01.295Z,14.64
2023-07-05T23:13:04.714Z,14.73
2023-07-05T23:15:08.992Z,14.62
2023-07-05T23:17:12.593Z,14.61
2023-07-05T23:19:17.119Z,14.68
2023-07-05T23:21:20.816Z,14.69
2023-07-05T23:23:24.366Z,14.70
2023-07-05T23:25:29.184Z,14.72
2023-07-05T23:27:33.320Z,14.69
2023-07-05T23:29:37.077Z,14.66
2023-07-05T23:31:43.251Z,14.68
2023-07-05T23:33:48.394Z,14.09
2023-07-05T23:35:52.414Z,14.90
2023-07-05T23:37:55.875Z,14.78
2023-07-05T23:39:59.376Z,14.96
2023-07-05T23:42:04.343Z,14.83
2023-07-05T23:44:07.882Z,14.98
2023-07-05T23:46:11.783Z,14.91
2023-07-05T23:48:17.455Z,14.89
2023-07-05T23:50:21.852Z,14.94
2023-07-05T23:52:25.699Z,14.95
2023-07-05T23:54:32.654Z,15.02
2023-07-05T23:56:44.213Z,14.95
2023-07-05T23:58:49.031Z,14.96
